Time;durP1;ratioP1;P1;durP2;ratioP2;P2;SDS_P1;SDS_P2;PMS_P1;PMS_P2;Temp;Humidity;BMP_temperature;BMP_pressure;BME280_temperature;BME280_humidity;BME280_pressure;Samples;Min_cycle;Max_cycle;Signal;HPM_P1;HPM_P2
2023/03/27 00:01:18;;;;;;;1.07;0.70;;;;;;;11.26;78.81;97702.25;6270328;22;20171;-90
2023/03/27 00:03:48;;;;;;;1.83;0.80;;;;;;;11.23;79.67;97694.75;6237902;22;20241;-90
2023/03/27 00:06:17;;;;;;;1.13;0.90;;;;;;;11.14;79.86;97688.34;6237291;22;20168;-87
2023/03/27 00:08:45;;;;;;;1.43;0.90;;;;;;;11.17;80.28;97695.81;6237004;22;20189;-87
2023/03/27 00:11:13;;;;;;;1.63;0.90;;;;;;;11.16;80.52;97701.44;6240099;22;20187;-91
2023/03/27 00:13:40;;;;;;;2.07;0.90;;;;;;;11.17;80.48;97693.13;6265913;22;20231;-89
2023/03/27 00:16:18;;;;;;;1.47;1.00;;;;;;;11.16;81.06;97686.16;6252505;22;20172;-90
2023/03/27 00:18:46;;;;;;;1.00;0.93;;;;;;;11.07;81.49;97693.16;6260232;22;20183;-87
2023/03/27 00:21:12;;;;;;;2.10;0.90;;;;;;;11.14;81.33;97691.00;6237239;22;20172;-89
2023/03/27 00:23:41;;;;;;;0.93;0.83;;;;;;;11.19;81.29;97698.25;6269283;22;20184;-90
2023/03/27 00:26:10;;;;;;;1.17;0.90;;;;;;;10.97;81.72;97704.66;6242885;22;20183;-89
2023/03/27 00:28:38;;;;;;;1.37;0.80;;;;;;;10.98;82.09;97697.44;6240593;22;20671;-91
2023/03/27 00:31:09;;;;;;;2.30;1.33;;;;;;;11.03;81.49;97700.94;6238149;22;20160;-90
2023/03/27 00:33:36;;;;;;;1.60;1.03;;;;;;;11.05;81.46;97684.59;6238803;22;20156;-91
2023/03/27 00:36:03;;;;;;;1.90;1.00;;;;;;;10.98;81.48;97686.72;6238946;22;20168;-90
2023/03/27 00:38:31;;;;;;;2.03;1.30;;;;;;;10.98;81.64;97684.84;6265281;22;20160;-89
2023/03/27 00:40:58;;;;;;;1.27;1.17;;;;;;;10.97;82.02;97685.09;6237868;22;20171;-90
2023/03/27 00:43:27;;;;;;;2.03;1.40;;;;;;;11.06;81.79;97674.69;6240547;22;20191;-90
2023/03/27 00:46:00;;;;;;;2.57;1.40;;;;;;;10.84;82.43;97680.28;6294488;22;20221;-89
2023/03/27 00:48:29;;;;;;;2.13;1.43;;;;;;;10.81;83.19;97680.84;6266880;22;20160;-91
2023/03/27 00:50:57;;;;;;;2.10;1.27;;;;;;;10.78;83.34;97684.06;6239822;22;20194;-91
2023/03/27 00:53:25;;;;;;;1.57;1.47;;;;;;;10.87;83.35;97677.09;6268760;22;20172;-89
2023/03/27 00:55:56;;;;;;;2.87;2.00;;;;;;;10.92;83.21;97679.75;6244573;22;20195;-91
2023/03/27 00:58:26;;;;;;;2.27;1.80;;;;;;;10.83;83.59;97687.53;6249195;22;20164;-91
2023/03/27 01:00:55;;;;;;;1.80;1.70;;;;;;;10.88;83.71;97678.69;6272651;22;20164;-90
2023/03/27 01:03:29;;;;;;;2.13;1.97;;;;;;;10.68;84.33;97682.19;6254753;22;20186;-89
2023/03/27 01:06:00;;;;;;;3.20;1.90;;;;;;;10.79;84.16;97682.97;6252821;22;20164;-89
2023/03/27 01:08:29;;;;;;;1.90;1.70;;;;;;;10.76;84.34;97681.66;6251029;22;20155;-89
2023/03/27 01:11:05;;;;;;;2.03;1.80;;;;;;;10.55;85.12;97683.50;6272706;22;20163;-90
2023/03/27 01:13:35;;;;;;;1.90;1.80;;;;;;;10.64;85.52;97678.41;6294418;22;20174;-90
2023/03/27 01:16:25;;;;;;;2.00;1.80;;;;;;;10.57;85.09;97673.34;6266809;22;20543;-90
2023/03/27 01:19:15;;;;;;;3.00;1.77;;;;;;;10.56;85.66;97679.75;6269741;22;20226;-89
2023/03/27 01:22:10;;;;;;;1.97;1.87;;;;;;;10.49;85.72;97673.06;6298466;22;20174;-88
2023/03/27 01:24:47;;;;;;;2.20;1.87;;;;;;;10.52;85.82;97672.50;6269408;22;20196;-91
2023/03/27 01:27:29;;;;;;;2.47;1.87;;;;;;;10.53;85.83;97674.13;6301573;22;20164;-88
2023/03/27 01:30:07;;;;;;;2.07;1.70;;;;;;;10.41;86.60;97669.00;6249015;22;20159;-91
2023/03/27 01:32:59;;;;;;;2.20;2.00;;;;;;;10.31;87.74;97660.19;6243819;22;20166;-89
2023/03/27 01:35:51;;;;;;;1.80;1.70;;;;;;;10.32;87.39;97662.56;6269305;22;20632;-88
2023/03/27 01:38:34;;;;;;;1.70;1.60;;;;;;;10.29;87.42;97655.09;6292167;22;20194;-88
2023/03/27 01:41:08;;;;;;;1.70;1.30;;;;;;;10.29;87.15;97655.09;6263444;22;20160;-88
2023/03/27 01:44:02;;;;;;;2.03;1.20;;;;;;;10.27;87.38;97646.50;6294480;22;20183;-90
2023/03/27 01:46:42;;;;;;;1.90;1.37;;;;;;;10.22;87.72;97654.53;6274578;22;20209;-89
2023/03/27 01:49:18;;;;;;;1.40;1.30;;;;;;;10.13;87.87;97653.41;6300231;22;20159;-88
2023/03/27 01:51:57;;;;;;;1.27;0.97;;;;;;;10.07;88.20;97660.63;6267458;22;20206;-88
2023/03/27 01:54:30;;;;;;;1.20;1.10;;;;;;;10.01;88.44;97650.19;6242047;22;20230;-89
2023/03/27 01:57:02;;;;;;;1.00;1.00;;;;;;;9.99;88.31;97653.09;6260691;22;20164;-89
2023/03/27 01:59:33;;;;;;;1.03;1.03;;;;;;;9.82;89.05;97641.81;6244177;22;20168;-91
2023/03/27 02:02:02;;;;;;;1.10;1.10;;;;;;;9.75;89.63;97648.50;6236644;22;20160;-90
2023/03/27 02:04:38;;;;;;;1.10;0.93;;;;;;;9.60;90.56;97646.56;6269380;22;20230;-90
2023/03/27 02:07:11;;;;;;;1.30;1.20;;;;;;;9.72;90.49;97636.44;6241314;22;20167;-90
2023/03/27 02:09:46;;;;;;;1.10;0.93;;;;;;;9.80;89.16;97649.28;6244425;22;20205;-90
2023/03/27 02:12:18;;;;;;;1.00;0.90;;;;;;;9.67;89.45;97631.06;6270705;22;20163;-89
2023/03/27 02:14:55;;;;;;;0.70;0.70;;;;;;;9.67;88.97;97628.41;6272446;22;20163;-93
2023/03/27 02:17:46;;;;;;;0.50;0.50;;;;;;;9.53;88.82;97636.09;6260578;22;20179;-90
2023/03/27 02:20:16;;;;;;;1.13;0.60;;;;;;;9.54;89.45;97637.72;6251969;22;20199;-89
2023/03/27 02:22:47;;;;;;;0.97;0.70;;;;;;;9.43;89.38;97624.53;6297533;22;20191;-91
2023/03/27 02:25:34;;;;;;;0.40;0.40;;;;;;;9.41;89.57;97622.16;6271974;22;20166;-90
2023/03/27 02:28:05;;;;;;;0.50;0.50;;;;;;;9.22;90.23;97613.78;6249226;22;20164;-90
2023/03/27 02:30:57;;;;;;;0.70;0.60;;;;;;;9.22;90.42;97611.09;6272551;22;20164;-89
2023/03/27 02:34:10;;;;;;;0.60;0.60;;;;;;;9.08;91.19;97606.47;6306355;22;20167;-90
2023/03/27 02:37:02;;;;;;;0.87;0.60;;;;;;;9.09;91.51;97608.09;6300430;22;20250;-89
2023/03/27 02:40:22;;;;;;;0.60;0.60;;;;;;;8.97;91.60;97610.13;6264798;22;20171;-90
2023/03/27 02:43:28;;;;;;;0.67;0.60;;;;;;;8.93;92.74;97615.19;6303422;22;20213;-90
2023/03/27 02:46:28;;;;;;;0.70;0.70;;;;;;;8.80;93.36;97605.78;6280072;22;20163;-91
2023/03/27 02:49:05;;;;;;;0.80;0.80;;;;;;;8.90;93.38;97609.56;6267969;22;20168;-91
2023/03/27 02:51:52;;;;;;;0.60;0.60;;;;;;;8.88;94.05;97596.47;6255008;22;20179;-91
2023/03/27 03:03:43;;;;;;;0.50;0.50;;;;;;;8.63;96.15;97594.44;6206799;23;20244;-91
2023/03/27 03:11:11;;;;;;;0.40;0.40;;;;;;;8.62;96.60;97587.50;6212015;23;20170;-88
2023/03/27 03:17:39;;;;;;;0.20;0.20;;;;;;;8.53;97.61;97596.22;6236646;23;20181;-91
2023/03/27 03:20:38;;;;;;;0.40;0.40;;;;;;;8.48;97.64;97599.66;6214493;23;20203;-90
2023/03/27 03:27:40;;;;;;;0.67;0.20;;;;;;;8.38;99.29;97603.06;6149466;23;20248;-90
2023/03/27 03:30:12;;;;;;;0.20;0.20;;;;;;;8.36;99.90;97599.03;6102622;23;20160;-90
2023/03/27 03:33:08;;;;;;;0.37;0.27;;;;;;;8.51;98.56;97603.69;6125649;23;20172;-92
2023/03/27 03:35:47;;;;;;;0.50;0.20;;;;;;;8.58;98.08;97597.09;6100333;23;20199;-90
2023/03/27 03:38:28;;;;;;;0.13;0.13;;;;;;;8.64;98.10;97605.91;6124427;23;20172;-91
2023/03/27 03:41:11;;;;;;;0.17;0.17;;;;;;;8.55;98.18;97600.25;6134246;23;20168;-91
2023/03/27 03:43:46;;;;;;;0.20;0.20;;;;;;;8.50;99.01;97602.88;6227762;23;20252;-90
2023/03/27 03:46:19;;;;;;;0.30;0.30;;;;;;;8.52;98.91;97615.97;6190190;23;20162;-91
2023/03/27 03:48:50;;;;;;;0.20;0.20;;;;;;;8.51;99.44;97611.69;6211920;23;20217;-89
2023/03/27 03:51:20;;;;;;;0.30;0.30;;;;;;;8.52;99.71;97606.09;6163603;23;20209;-89
2023/03/27 03:54:18;;;;;;;0.30;0.20;;;;;;;8.54;99.63;97613.88;6224310;23;20215;-91
2023/03/27 03:56:49;;;;;;;0.40;0.20;;;;;;;8.40;100.00;97630.28;6259616;22;20214;-91
2023/03/27 03:59:38;;;;;;;0.53;0.40;;;;;;;8.43;100.00;97617.50;6299961;22;20262;-90
2023/03/27 04:02:27;;;;;;;0.40;0.40;;;;;;;8.48;100.00;97621.03;6278727;22;20175;-90
2023/03/27 04:05:22;;;;;;;0.23;0.20;;;;;;;8.48;100.00;97622.88;6280086;22;20688;-90
2023/03/27 04:07:58;;;;;;;0.30;0.30;;;;;;;8.49;100.00;97630.63;6250695;22;20191;-91
2023/03/27 04:15:12;;;;;;;0.30;0.30;;;;;;;8.46;100.00;97625.78;6299257;22;20197;-90
2023/03/27 04:18:03;;;;;;;0.60;0.30;;;;;;;8.50;100.00;97626.09;6277826;22;20171;-90
2023/03/27 04:20:37;;;;;;;0.23;0.20;;;;;;;8.41;100.00;97628.41;6243283;22;20165;-90
2023/03/27 04:23:17;;;;;;;0.30;0.20;;;;;;;8.43;99.74;97620.16;6271267;22;20188;-91
2023/03/27 04:26:02;;;;;;;0.40;0.20;;;;;;;8.29;100.00;97639.28;6298577;22;20165;-91
2023/03/27 04:29:09;;;;;;;0.30;0.20;;;;;;;8.39;99.42;97633.22;6313091;22;20509;-91
2023/03/27 04:36:14;;;;;;;0.43;0.20;;;;;;;8.20;99.38;97635.41;6333464;22;20147;-91
2023/03/27 04:38:57;;;;;;;0.40;0.20;;;;;;;8.26;99.18;97637.06;6278503;22;20163;-91
2023/03/27 04:41:28;;;;;;;0.30;0.20;;;;;;;8.27;99.44;97643.19;6254913;22;20186;-91
2023/03/27 04:44:03;;;;;;;0.10;0.10;;;;;;;8.30;99.38;97654.22;6279618;22;20214;-91
2023/03/27 04:46:40;;;;;;;0.20;0.20;;;;;;;8.26;99.25;97653.06;6232213;22;20160;-90
2023/03/27 04:52:57;;;;;;;0.40;0.20;;;;;;;8.30;99.90;97666.75;6294389;22;20169;-90
2023/03/27 05:09:07;;;;;;;0.33;0.20;;;;;;;8.24;100.00;97710.41;6241792;23;20169;-91
2023/03/27 05:20:28;;;;;;;0.20;0.20;;;;;;;8.11;100.00;97713.47;6240204;23;20178;-91
2023/03/27 05:27:33;;;;;;;0.10;0.10;;;;;;;8.19;100.00;97719.16;6245130;22;20211;-92
2023/03/27 05:32:06;;;;;;;0.30;0.20;;;;;;;8.19;100.00;97729.84;6261412;23;20157;-90
2023/03/27 05:35:31;;;;;;;0.80;0.30;;;;;;;8.17;100.00;97739.13;6179260;23;20175;-91
2023/03/27 05:46:26;;;;;;;0.83;0.20;;;;;;;8.17;100.00;97750.59;6181540;23;20208;-89
2023/03/27 05:49:22;;;;;;;0.30;0.10;;;;;;;8.16;100.00;97759.69;6180957;23;20167;-91
2023/03/27 05:57:06;;;;;;;0.47;0.20;;;;;;;8.29;100.00;97769.16;6064415;23;20221;-93
2023/03/27 06:04:57;;;;;;;0.10;0.10;;;;;;;8.26;100.00;97769.63;6122177;23;20164;-91
2023/03/27 06:12:23;;;;;;;0.10;0.10;;;;;;;8.21;100.00;97757.06;6082978;23;20192;-90
2023/03/27 06:15:00;;;;;;;0.53;0.10;;;;;;;8.09;100.00;97777.72;6085566;23;20243;-90
2023/03/27 06:17:45;;;;;;;1.43;0.17;;;;;;;8.11;100.00;97775.63;6061242;23;20173;-90
2023/03/27 06:20:23;;;;;;;0.10;0.10;;;;;;;8.12;100.00;97785.22;6086977;23;20236;-90
2023/03/27 06:23:00;;;;;;;0.20;0.20;;;;;;;8.08;100.00;97788.63;6085732;23;20205;-90
2023/03/27 06:25:39;;;;;;;0.03;0.03;;;;;;;8.02;100.00;97779.78;6104142;23;20160;-90
2023/03/27 06:28:11;;;;;;;0.10;0.10;;;;;;;7.98;100.00;97779.44;6087782;23;20187;-90
2023/03/27 06:30:49;;;;;;;0.30;0.00;;;;;;;8.05;100.00;97781.13;6088197;23;20223;-91
2023/03/27 06:33:46;;;;;;;0.10;0.10;;;;;;;7.92;100.00;97774.31;6087381;23;20177;-91
2023/03/27 06:36:52;;;;;;;0.10;0.10;;;;;;;7.97;100.00;97788.53;6089362;23;20165;-90
2023/03/27 06:39:49;;;;;;;0.10;0.10;;;;;;;7.94;100.00;97783.66;6173764;23;20192;-91
2023/03/27 06:42:38;;;;;;;1.13;0.10;;;;;;;8.04;100.00;97790.19;6185920;23;20167;-90
2023/03/27 06:49:33;;;;;;;0.20;0.10;;;;;;;8.15;100.00;97800.75;6278158;22;20174;-90
2023/03/27 06:52:11;;;;;;;0.10;0.10;;;;;;;8.22;100.00;97813.88;6289498;22;20210;-90
2023/03/27 06:54:39;;;;;;;1.00;0.10;;;;;;;8.41;100.00;97815.22;6327857;22;20168;-91
2023/03/27 07:02:01;;;;;;;0.63;0.10;;;;;;;8.52;100.00;97824.97;6304741;22;20162;-92
2023/03/27 07:09:21;;;;;;;0.10;0.10;;;;;;;8.79;100.00;97823.13;6335973;22;20139;-89
2023/03/27 07:12:16;;;;;;;0.33;0.10;;;;;;;8.96;100.00;97833.69;6286971;22;20243;-91
2023/03/27 07:15:17;;;;;;;0.20;0.20;;;;;;;9.04;100.00;97841.25;6284751;22;20163;-91
2023/03/27 07:30:56;;;;;;;0.27;0.27;;;;;;;9.69;100.00;97854.38;6208840;23;20228;-91
2023/03/27 07:33:44;;;;;;;0.10;0.10;;;;;;;9.93;99.73;97849.47;6190053;23;20163;-92
2023/03/27 07:40:34;;;;;;;0.63;0.30;;;;;;;10.23;97.55;97861.41;6204459;23;20254;-91
2023/03/27 07:48:50;;;;;;;0.30;0.30;;;;;;;10.52;96.50;97874.13;6150509;23;20159;-90
2023/03/27 07:53:24;;;;;;;0.30;0.30;;;;;;;10.50;96.68;97872.78;6151239;23;20178;-90
2023/03/27 08:08:27;;;;;;;0.60;0.60;;;;;;;10.42;95.84;97887.47;6253329;23;20148;-91
2023/03/27 08:11:40;;;;;;;0.77;0.70;;;;;;;10.29;96.77;97890.63;6274731;22;20217;-90
2023/03/27 08:15:45;;;;;;;0.73;0.73;;;;;;;10.46;95.31;97893.09;6247971;22;20195;-91
2023/03/27 08:40:24;;;;;;;1.10;1.10;;;;;;;10.88;98.67;97925.16;6092284;23;20171;-90
2023/03/27 08:43:35;;;;;;;1.20;1.10;;;;;;;10.95;98.75;97926.53;6091636;23;20179;-90
2023/03/27 08:46:49;;;;;;;0.80;0.80;;;;;;;11.06;96.47;97927.34;6066095;23;20194;-90
2023/03/27 08:58:50;;;;;;;0.70;0.70;;;;;;;11.07;95.73;97936.22;6142411;23;20225;-91
2023/03/27 09:02:31;;;;;;;0.80;0.80;;;;;;;11.60;94.38;97926.94;6228514;23;20236;-88
2023/03/27 09:10:28;;;;;;;0.53;0.53;;;;;;;11.23;92.95;97941.38;6239481;23;20196;-90
2023/03/27 09:26:27;;;;;;;0.57;0.50;;;;;;;11.38;90.20;97976.25;6209481;23;20306;-92
2023/03/27 09:34:32;;;;;;;0.30;0.30;;;;;;;9.77;93.82;98020.75;6241168;23;20213;-90
2023/03/27 09:38:21;;;;;;;0.50;0.40;;;;;;;9.10;94.62;98045.94;6251640;22;20153;-91
2023/03/27 09:44:40;;;;;;;0.30;0.30;;;;;;;8.58;94.20;98066.88;6296376;22;20210;-90
2023/03/27 09:47:38;;;;;;;1.87;0.30;;;;;;;8.54;92.73;98071.06;6278724;22;20628;-90
2023/03/27 09:50:19;;;;;;;1.47;0.30;;;;;;;8.50;92.21;98085.97;6297698;22;20167;-89
2023/03/27 09:53:20;;;;;;;0.30;0.30;;;;;;;8.26;96.29;98087.13;6272121;22;20221;-90
2023/03/27 09:56:06;;;;;;;1.37;0.30;;;;;;;8.29;93.16;98106.19;6248031;22;20182;-90
2023/03/27 09:58:47;;;;;;;1.27;0.30;;;;;;;8.44;92.86;98112.84;6267889;22;20187;-90
2023/03/27 10:01:34;;;;;;;1.47;0.40;;;;;;;8.80;89.69;98123.00;6273832;22;20594;-91
2023/03/27 10:04:23;;;;;;;0.63;0.20;;;;;;;8.46;85.58;98127.53;6296551;22;20191;-91
2023/03/27 10:07:00;;;;;;;0.40;0.30;;;;;;;8.37;86.07;98134.31;6266696;22;20159;-89
2023/03/27 10:10:07;;;;;;;0.30;0.30;;;;;;;8.49;84.19;98155.63;6248771;22;20167;-90
2023/03/27 10:13:01;;;;;;;0.20;0.20;;;;;;;8.66;81.37;98157.25;6270622;22;20189;-90
2023/03/27 10:15:38;;;;;;;0.93;0.30;;;;;;;8.33;80.50;98159.88;6266051;22;20593;-91
2023/03/27 10:18:42;;;;;;;1.20;0.50;;;;;;;8.87;81.11;98171.72;6241377;22;20179;-90
2023/03/27 10:21:38;;;;;;;0.40;0.40;;;;;;;8.39;83.38;98191.75;6232145;22;20605;-89
2023/03/27 10:24:33;;;;;;;0.97;0.50;;;;;;;8.16;84.56;98210.53;6289774;22;20530;-90
2023/03/27 10:27:07;;;;;;;0.60;0.50;;;;;;;8.48;82.14;98213.53;6277016;22;20159;-92
2023/03/27 10:29:39;;;;;;;0.93;0.53;;;;;;;8.10;81.36;98224.00;6268199;22;20665;-90
2023/03/27 10:32:14;;;;;;;1.03;0.60;;;;;;;8.52;81.18;98221.88;6260388;22;20268;-89
2023/03/27 10:35:22;;;;;;;0.70;0.70;;;;;;;8.35;80.65;98270.66;6229445;22;20219;-90
2023/03/27 10:38:21;;;;;;;0.80;0.70;;;;;;;7.88;79.49;98277.97;6265074;22;20342;-93
2023/03/27 10:40:59;;;;;;;1.73;0.60;;;;;;;7.19;78.66;98262.00;6232299;22;20620;-90
2023/03/27 10:43:42;;;;;;;1.77;0.63;;;;;;;7.28;79.62;98281.97;6231377;22;20171;-89
2023/03/27 10:46:16;;;;;;;1.80;0.80;;;;;;;7.19;79.86;98280.66;6255569;22;20191;-89
2023/03/27 10:49:04;;;;;;;0.80;0.70;;;;;;;7.45;79.35;98298.88;6278739;22;20183;-88
2023/03/27 10:51:50;;;;;;;0.90;0.80;;;;;;;7.16;79.92;98329.88;6254941;22;20168;-89
2023/03/27 10:54:29;;;;;;;0.80;0.80;;;;;;;6.87;80.99;98320.88;6254415;22;20232;-89
2023/03/27 10:57:17;;;;;;;1.43;0.70;;;;;;;12.32;75.57;98351.78;6254756;22;20231;-90
2023/03/27 10:59:59;;;;;;;1.43;1.10;;;;;;;10.81;74.81;98350.56;6227567;22;20164;-89
2023/03/27 11:02:47;;;;;;;1.20;1.10;;;;;;;13.87;66.39;98362.28;6232578;22;20206;-89
2023/03/27 11:05:20;;;;;;;1.33;1.27;;;;;;;12.59;68.34;98370.44;6279990;22;20188;-90
2023/03/27 11:08:12;;;;;;;1.50;1.40;;;;;;;11.93;69.08;98377.34;6279727;22;20159;-90
2023/03/27 11:10:44;;;;;;;1.40;1.30;;;;;;;11.80;100.00;98402.72;6221219;22;20165;-90
2023/03/27 11:13:32;;;;;;;1.63;1.53;;;;;;;7.28;100.00;98393.84;6206987;22;20176;-90
2023/03/27 11:16:15;;;;;;;1.70;1.60;;;;;;;7.51;100.00;98413.34;6230107;22;20174;-91
2023/03/27 11:19:42;;;;;;;1.33;1.23;;;;;;;7.16;100.00;98425.78;6220596;22;20168;-91
2023/03/27 11:22:29;;;;;;;3.13;1.40;;;;;;;7.38;100.00;98445.53;6232677;22;20172;-91
2023/03/27 11:25:10;;;;;;;1.40;1.30;;;;;;;14.61;100.00;98457.81;6251476;22;20204;-89
2023/03/27 11:27:40;;;;;;;1.43;1.33;;;;;;;15.67;100.00;98474.34;6227525;22;20168;-89
2023/03/27 11:30:36;;;;;;;1.70;1.60;;;;;;;18.79;100.00;98486.94;6225400;22;20164;-88
2023/03/27 11:33:23;;;;;;;2.10;1.90;;;;;;;22.05;100.00;98501.03;6202937;22;20211;-89
2023/03/27 11:36:04;;;;;;;2.10;1.90;;;;;;;20.06;100.00;98509.47;6227627;22;20169;-88
2023/03/27 11:39:03;;;;;;;1.60;1.50;;;;;;;6.16;100.00;98507.78;6208476;22;20160;-88
2023/03/27 11:41:31;;;;;;;3.17;2.10;;;;;;;5.22;100.00;98502.53;6226683;22;20179;-89
2023/03/27 11:44:00;;;;;;;3.03;2.20;;;;;;;5.04;100.00;98517.53;6203259;22;20236;-91
2023/03/27 11:47:06;;;;;;;3.27;2.20;;;;;;;5.53;100.00;98516.84;6209671;22;20165;-89
2023/03/27 11:49:48;;;;;;;2.00;1.80;;;;;;;5.21;100.00;98516.00;6251830;22;20168;-89
2023/03/27 11:52:33;;;;;;;1.97;1.80;;;;;;;5.81;100.00;98527.91;6252307;22;20190;-90
2023/03/27 11:55:07;;;;;;;2.33;2.13;;;;;;;6.45;100.00;98540.06;6227494;22;20266;-88
2023/03/27 11:57:57;;;;;;;1.97;1.87;;;;;;;6.20;100.00;98535.56;6227708;22;20190;-89
2023/03/27 12:00:52;;;;;;;2.17;1.40;;;;;;;6.36;100.00;98544.03;6228391;22;20251;-89
2023/03/27 12:03:58;;;;;;;2.47;2.00;;;;;;;6.39;100.00;98541.75;6217449;22;20218;-90
2023/03/27 12:07:04;;;;;;;2.50;2.00;;;;;;;7.18;100.00;98564.06;6230938;22;20168;-89
2023/03/27 12:10:02;;;;;;;2.07;1.87;;;;;;;7.67;100.00;98561.16;6206740;22;20168;-90
2023/03/27 12:13:43;;;;;;;1.67;1.40;;;;;;;7.35;100.00;98565.88;6244931;22;20172;-90
2023/03/27 12:16:52;;;;;;;1.70;1.60;;;;;;;6.89;100.00;98582.41;6112562;23;20185;-90
2023/03/27 12:19:40;;;;;;;2.17;1.93;;;;;;;6.59;100.00;98574.31;6131704;23;20194;-89
2023/03/27 12:22:45;;;;;;;2.03;1.93;;;;;;;6.64;100.00;98568.34;6252696;22;20157;-89
2023/03/27 12:26:19;;;;;;;4.57;2.50;;;;;;;6.73;100.00;98585.63;6252904;22;20188;-90
2023/03/27 12:29:34;;;;;;;3.17;1.97;;;;;;;6.60;100.00;98594.56;6131749;23;20174;-90
2023/03/27 12:32:28;;;;;;;2.63;2.20;;;;;;;7.27;100.00;98608.00;6261909;22;20287;-89
2023/03/27 12:35:02;;;;;;;2.80;2.23;;;;;;;7.46;100.00;98601.63;6253384;22;20169;-88
2023/03/27 12:37:49;;;;;;;3.13;2.20;;;;;;;7.80;100.00;98598.28;6234497;22;20188;-89
2023/03/27 12:40:33;;;;;;;2.73;2.00;;;;;;;7.83;100.00;98615.72;6229893;22;20156;-90
2023/03/27 12:43:25;;;;;;;2.10;1.90;;;;;;;7.30;100.00;98610.22;6229499;22;20178;-90
2023/03/27 12:46:10;;;;;;;4.87;1.97;;;;;;;6.95;100.00;98615.34;6207301;22;20188;-89
2023/03/27 12:48:57;;;;;;;2.43;2.00;;;;;;;6.74;100.00;98610.41;6227837;22;20176;-89
2023/03/27 12:51:56;;;;;;;3.40;2.13;;;;;;;6.89;100.00;98603.72;6227429;22;20168;-89
2023/03/27 12:55:06;;;;;;;2.10;2.00;;;;;;;7.52;100.00;98614.88;6257217;22;20627;-90
2023/03/27 12:57:55;;;;;;;3.23;1.57;;;;;;;7.61;100.00;98606.56;6226870;22;20172;-90
2023/03/27 13:00:53;;;;;;;2.40;1.80;;;;;;;7.68;98.03;98624.09;6235716;22;20172;-89
2023/03/27 13:03:52;;;;;;;3.00;2.13;;;;;;;7.68;100.00;98620.63;6204349;22;20247;-90
2023/03/27 13:06:50;;;;;;;3.43;1.93;;;;;;;7.89;95.53;98623.59;6227988;22;20208;-90
2023/03/27 13:09:32;;;;;;;2.37;1.70;;;;;;;7.81;91.69;98613.25;6252970;22;20238;-89
2023/03/27 13:12:17;;;;;;;2.07;1.70;;;;;;;7.99;88.47;98599.03;6229162;22;20251;-89
2023/03/27 13:15:07;;;;;;;1.90;1.70;;;;;;;7.75;84.50;98595.50;6227857;22;20164;-90
2023/03/27 13:17:38;;;;;;;2.13;1.87;;;;;;;7.95;84.27;98595.22;6252844;22;20170;-88
2023/03/27 13:20:15;;;;;;;2.37;1.50;;;;;;;8.33;78.76;98601.03;6253354;22;20192;-90
2023/03/27 13:23:03;;;;;;;2.23;1.80;;;;;;;8.46;77.78;98594.66;6229518;22;20168;-89
2023/03/27 13:26:26;;;;;;;2.70;1.80;;;;;;;8.66;74.61;98584.44;6253735;22;20188;-89
2023/03/27 13:28:57;;;;;;;2.30;1.57;;;;;;;8.86;69.96;98594.78;6196204;22;20164;-89
2023/03/27 13:31:44;;;;;;;2.87;1.80;;;;;;;9.20;69.50;98604.59;6219640;22;20653;-89
2023/03/27 13:34:26;;;;;;;3.37;1.80;;;;;;;9.77;66.76;98599.31;6232307;22;20174;-90
2023/03/27 13:37:26;;;;;;;3.50;1.70;;;;;;;10.14;66.10;98602.38;6232548;22;20156;-90
2023/03/27 13:40:35;;;;;;;3.23;1.80;;;;;;;9.33;60.12;98603.53;6234336;22;20168;-90
2023/03/27 13:43:23;;;;;;;3.50;1.27;;;;;;;9.31;60.52;98621.66;6233895;22;20180;-89
2023/03/27 13:46:06;;;;;;;1.63;1.50;;;;;;;9.52;57.46;98629.03;6213691;22;20212;-89
2023/03/27 13:48:53;;;;;;;1.40;1.30;;;;;;;9.57;55.35;98623.78;6232379;22;20207;-90
2023/03/27 13:52:02;;;;;;;1.10;1.10;;;;;;;8.87;55.02;98630.28;6229539;22;20169;-91
2023/03/27 13:55:13;;;;;;;2.80;1.40;;;;;;;8.61;54.86;98637.72;6256837;22;20185;-89
2023/03/27 13:58:27;;;;;;;1.40;1.07;;;;;;;8.50;54.80;98609.16;6232341;22;20251;-89
2023/03/27 14:01:06;;;;;;;4.43;1.30;;;;;;;8.33;53.46;98640.22;6228865;22;20165;-88
2023/03/27 14:03:56;;;;;;;1.60;1.40;;;;;;;8.36;54.36;98643.25;6227600;22;20171;-88
2023/03/27 14:06:51;;;;;;;1.80;1.30;;;;;;;8.44;54.45;98639.47;6229298;22;20187;-89
2023/03/27 14:09:29;;;;;;;2.13;1.20;;;;;;;8.19;53.39;98633.44;6228034;22;20160;-89
2023/03/27 14:12:17;;;;;;;3.27;1.20;;;;;;;8.21;49.69;98639.38;6229583;22;20171;-90
2023/03/27 14:15:37;;;;;;;1.50;1.13;;;;;;;8.35;49.52;98654.19;6211481;22;20683;-89
2023/03/27 14:18:49;;;;;;;1.93;1.13;;;;;;;8.73;49.83;98643.06;6208924;22;20172;-88
2023/03/27 14:21:21;;;;;;;1.23;0.83;;;;;;;8.77;46.54;98652.25;6227732;22;20164;-89
2023/03/27 14:24:43;;;;;;;0.90;0.90;;;;;;;8.97;45.82;98649.22;6231313;22;20214;-90
2023/03/27 14:27:32;;;;;;;2.67;1.03;;;;;;;9.15;45.74;98654.44;6246246;22;20251;-90
2023/03/27 14:30:06;;;;;;;1.40;1.07;;;;;;;8.92;46.54;98678.50;6227357;22;20169;-88
2023/03/27 14:32:35;;;;;;;1.60;1.07;;;;;;;8.72;46.67;98692.19;6253582;22;20580;-87
2023/03/27 14:35:04;;;;;;;2.20;1.10;;;;;;;8.58;46.48;98683.59;6203353;22;20172;-89
2023/03/27 14:37:43;;;;;;;1.03;0.93;;;;;;;8.65;45.98;98686.94;6206987;22;20164;-89
2023/03/27 14:40:40;;;;;;;0.70;0.60;;;;;;;8.44;45.80;98692.03;6208900;22;20165;-89
2023/03/27 14:43:10;;;;;;;1.00;0.90;;;;;;;8.34;46.78;98709.41;6203135;22;20187;-87
2023/03/27 14:45:39;;;;;;;1.37;0.97;;;;;;;8.32;47.52;98697.31;6202237;22;20194;-91
2023/03/27 14:48:18;;;;;;;0.80;0.77;;;;;;;8.25;48.75;98717.94;6227360;22;20176;-90
2023/03/27 14:50:48;;;;;;;1.30;1.17;;;;;;;7.94;50.42;98735.75;6227966;22;20164;-89
2023/03/27 14:53:24;;;;;;;1.80;1.00;;;;;;;7.78;51.85;98730.22;6203644;22;20190;-88
2023/03/27 14:56:25;;;;;;;1.60;0.90;;;;;;;7.85;53.00;98749.63;6211106;22;20618;-89
2023/03/27 14:59:23;;;;;;;1.50;1.23;;;;;;;7.85;55.58;98737.09;6250293;22;20634;-91
2023/03/27 15:01:58;;;;;;;1.30;1.10;;;;;;;7.95;56.22;98733.91;6206082;22;20167;-89
2023/03/27 15:04:28;;;;;;;1.90;1.20;;;;;;;7.80;55.62;98734.28;6227635;22;20633;-89
2023/03/27 15:07:12;;;;;;;1.87;1.20;;;;;;;7.69;54.98;98739.56;6190819;22;20188;-89
2023/03/27 15:10:06;;;;;;;1.83;1.17;;;;;;;7.97;54.84;98747.84;6224122;22;20243;-90
2023/03/27 15:12:54;;;;;;;3.17;1.10;;;;;;;7.94;54.83;98751.75;6257027;22;20171;-88
2023/03/27 15:15:25;;;;;;;1.83;1.00;;;;;;;8.30;53.70;98750.94;6203664;22;20164;-88
2023/03/27 15:17:53;;;;;;;1.60;0.90;;;;;;;8.33;53.81;98755.81;6229449;22;20165;-89
2023/03/27 15:20:29;;;;;;;1.53;1.30;;;;;;;8.21;52.57;98751.44;6205400;22;20184;-88
2023/03/27 15:23:17;;;;;;;1.70;1.27;;;;;;;7.97;50.86;98774.53;6204357;22;20502;-88
2023/03/27 15:25:54;;;;;;;3.03;1.17;;;;;;;7.80;51.77;98773.47;6204017;22;20188;-89
2023/03/27 15:29:07;;;;;;;1.77;1.00;;;;;;;7.64;52.06;98788.22;6253741;22;20606;-88
2023/03/27 15:31:35;;;;;;;2.27;1.03;;;;;;;7.50;54.68;98816.84;6133167;23;20209;-88
2023/03/27 15:34:20;;;;;;;1.23;1.00;;;;;;;6.87;58.22;98826.78;6189321;22;20226;-88
2023/03/27 15:36:54;;;;;;;1.00;0.90;;;;;;;6.87;55.92;98816.13;6228349;22;20218;-90
2023/03/27 15:39:21;;;;;;;0.80;0.53;;;;;;;6.69;52.30;98799.25;6228405;22;20171;-88
2023/03/27 15:41:52;;;;;;;2.27;0.60;;;;;;;6.60;52.79;98801.34;6229056;22;20233;-88
2023/03/27 15:44:22;;;;;;;0.83;0.60;;;;;;;6.56;51.33;98806.28;6228751;22;20161;-89
2023/03/27 15:46:54;;;;;;;1.10;0.80;;;;;;;6.52;51.58;98812.25;6228436;22;20188;-91
2023/03/27 15:49:31;;;;;;;0.97;0.70;;;;;;;6.57;50.48;98813.25;6228420;22;20168;-89
2023/03/27 15:52:00;;;;;;;1.47;0.70;;;;;;;6.55;51.24;98819.81;6228982;22;20156;-88
2023/03/27 15:54:28;;;;;;;1.73;0.90;;;;;;;6.45;52.19;98817.59;6228169;22;20168;-87
2023/03/27 15:56:57;;;;;;;1.00;0.80;;;;;;;6.57;52.35;98839.06;6252868;22;20679;-88
2023/03/27 15:59:36;;;;;;;1.80;0.83;;;;;;;6.42;53.10;98833.19;6230601;22;20164;-88
2023/03/27 16:02:20;;;;;;;2.17;0.90;;;;;;;6.29;54.02;98842.06;6209632;22;20156;-89
2023/03/27 16:04:55;;;;;;;2.93;1.10;;;;;;;6.17;55.01;98847.19;6228316;22;20172;-89
2023/03/27 16:07:37;;;;;;;1.93;0.97;;;;;;;6.19;54.91;98862.97;6202683;22;20225;-88
2023/03/27 16:10:06;;;;;;;1.50;0.90;;;;;;;6.11;55.85;98858.66;6228276;22;20175;-88
2023/03/27 16:12:48;;;;;;;1.00;0.90;;;;;;;6.34;55.33;98860.03;6253678;22;20196;-88
2023/03/27 16:15:30;;;;;;;1.70;1.23;;;;;;;6.19;56.16;98861.13;6254261;22;20161;-88